aviador You're here:

KNFE Decoded Metar

in _UNIDENTIFIED
Report Time2018-02-19 11:56:00
UTC Time2018-02-19 12:10:19
Flight Rules vfr VFR
Wind130° at 04 kt
W.Decomp.*RWY 05: 0.1 kt HW 4.0 kt RCW
W.Rank130° ranks 29
Current wind is below 130° avg. (6.1)
Visibility9999 m
Phenomena:N/A
Clouds:Overcast 043 Hf
Expected CloudBase > 1,200 ft AGL from Temp-Dew spread
Ceiling4,300 ft
Temp09°C (ISA -6)
Dew Point06°C (82% RH)
AAT6.7°C
QNH1032 hPa
Density Alt-1,217 ft
Elevation13 ft
Report Wrong Elevation
Raw Report
KNFE 191156Z AUTO 13004KT 10SM OVC043 09/06 A3048 RMK AO2 SLP323
T00890056 10089 20011 55001=

Extra information for KNFE:More info

Metar Taf Metar & Taf Last 4 Metars F.Rules Stats Wind Profile Meteogram Temp Stats Metar ALERT Operation Metar Decoded Social comments